createdAt,value
2018-01-12T00:00:47.661Z,83.90
2018-01-12T00:03:15.229Z,84.10
2018-01-12T00:05:42.784Z,84.10
2018-01-12T00:08:10.345Z,83.50
2018-01-12T00:10:37.182Z,83.50
2018-01-12T00:13:05.342Z,83.80
2018-01-12T00:15:31.998Z,83.70
2018-01-12T00:18:00.270Z,84.20
2018-01-12T00:20:26.905Z,84.10
2018-01-12T00:22:53.656Z,83.50
2018-01-12T00:25:20.534Z,83.60
2018-01-12T00:27:48.030Z,84.80
2018-01-12T00:30:14.718Z,84.00
2018-01-12T00:32:41.485Z,84.30
2018-01-12T00:35:08.111Z,83.80
2018-01-12T00:37:34.969Z,84.10
2018-01-12T00:40:01.725Z,83.40
2018-01-12T00:42:29.984Z,84.30
2018-01-12T00:44:56.749Z,84.10
2018-01-12T00:47:23.391Z,83.50
2018-01-12T00:49:50.153Z,83.80
2018-01-12T00:52:17.631Z,83.50
2018-01-12T00:54:44.555Z,83.50
2018-01-12T00:57:12.198Z,83.90
2018-01-12T00:59:38.862Z,83.70
2018-01-12T01:02:05.624Z,83.60
2018-01-12T01:04:33.877Z,83.00
2018-01-12T01:07:00.745Z,82.90
2018-01-12T01:09:28.313Z,82.40
2018-01-12T01:11:55.643Z,82.60
2018-01-12T01:14:22.433Z,82.60
2018-01-12T01:16:49.033Z,82.60
2018-01-12T01:19:16.444Z,82.50
2018-01-12T01:21:43.129Z,82.50
2018-01-12T01:24:09.784Z,82.50
2018-01-12T01:26:37.239Z,83.30
2018-01-12T01:29:03.897Z,83.20
2018-01-12T01:31:30.909Z,83.40
2018-01-12T01:33:57.811Z,83.70
2018-01-12T01:36:25.157Z,82.90
2018-01-12T01:38:52.529Z,82.80
2018-01-12T01:41:19.984Z,82.40
2018-01-12T01:43:46.623Z,83.20
2018-01-12T01:46:13.382Z,83.20
2018-01-12T01:48:40.735Z,82.60
2018-01-12T01:51:08.211Z,82.50
2018-01-12T01:53:35.773Z,82.50
2018-01-12T01:56:03.440Z,82.10
2018-01-12T01:58:30.997Z,82.50
2018-01-12T02:00:58.341Z,82.60
2018-01-12T02:03:25.129Z,82.60
2018-01-12T02:05:51.843Z,82.10
2018-01-12T02:08:18.697Z,82.90
2018-01-12T02:10:46.149Z,83.20
2018-01-12T02:13:12.797Z,82.60
2018-01-12T02:15:39.453Z,82.80
2018-01-12T02:18:06.776Z,83.10
2018-01-12T02:20:33.437Z,83.10
2018-01-12T02:23:00.405Z,82.40
2018-01-12T02:25:27.739Z,83.10
2018-01-12T02:27:54.616Z,83.00
2018-01-12T02:30:21.944Z,82.70
2018-01-12T02:32:48.689Z,82.70
2018-01-12T02:35:15.564Z,82.90
2018-01-12T02:37:42.982Z,82.80
2018-01-12T02:40:09.629Z,82.80
2018-01-12T02:42:36.213Z,81.90
2018-01-12T02:45:03.862Z,81.90
2018-01-12T02:47:30.731Z,81.90
2018-01-12T02:49:58.067Z,81.70
2018-01-12T02:52:26.792Z,81.40
2018-01-12T02:54:53.439Z,81.30
2018-01-12T02:57:21.085Z,81.60
2018-01-12T02:59:48.393Z,82.10
2018-01-12T03:02:15.173Z,82.10
2018-01-12T03:04:41.801Z,81.90
2018-01-12T03:07:08.433Z,81.60
2018-01-12T03:09:35.109Z,81.50
2018-01-12T03:12:01.773Z,81.80
2018-01-12T03:14:29.336Z,81.60
2018-01-12T03:16:56.670Z,81.40
2018-01-12T03:19:25.593Z,82.00
2018-01-12T03:21:53.149Z,82.10
2018-01-12T03:24:20.589Z,81.30
2018-01-12T03:26:47.337Z,81.20
2018-01-12T03:29:14.053Z,81.50
2018-01-12T03:31:41.049Z,81.30
2018-01-12T03:34:08.390Z,82.70
2018-01-12T03:36:35.158Z,82.60
2018-01-12T03:39:02.921Z,81.50
2018-01-12T03:41:30.397Z,81.50
2018-01-12T03:43:57.957Z,81.40
2018-01-12T03:46:25.383Z,81.70
2018-01-12T03:48:52.037Z,81.50
2018-01-12T03:51:19.222Z,81.30
2018-01-12T03:53:46.745Z,81.50
2018-01-12T03:56:13.529Z,81.50
2018-01-12T03:58:41.085Z,81.20
2018-01-12T04:01:07.725Z,81.20
2018-01-12T04:03:34.397Z,81.10
2018-01-12T04:06:01.025Z,81.00
2018-01-12T04:08:28.465Z,81.20
2018-01-12T04:10:55.238Z,81.20
2018-01-12T04:13:22.681Z,80.60
2018-01-12T04:15:51.093Z,80.60
2018-01-12T04:18:17.697Z,80.70
2018-01-12T04:20:45.041Z,80.80
2018-01-12T04:23:12.133Z,80.80
2018-01-12T04:25:39.561Z,80.70
2018-01-12T04:28:06.353Z,80.70
2018-01-12T04:30:33.894Z,80.40
2018-01-12T04:33:00.549Z,80.40
2018-01-12T04:35:28.306Z,80.30
2018-01-12T04:37:54.899Z,80.20
2018-01-12T04:40:22.110Z,80.00
2018-01-12T04:42:49.470Z,80.60
2018-01-12T04:45:16.197Z,79.80
2018-01-12T04:47:44.089Z,80.20
2018-01-12T04:50:11.653Z,80.80
2018-01-12T04:52:39.430Z,80.70
2018-01-12T04:55:06.860Z,80.50
2018-01-12T04:57:33.734Z,80.40
2018-01-12T05:00:01.506Z,80.00
2018-01-12T05:02:28.948Z,79.70
2018-01-12T05:04:55.782Z,79.60
2018-01-12T05:07:22.546Z,79.20
2018-01-12T05:09:49.182Z,79.60
2018-01-12T05:12:15.964Z,81.50
2018-01-12T05:14:42.679Z,81.20
2018-01-12T05:17:09.334Z,81.20
2018-01-12T05:19:36.655Z,81.20
2018-01-12T05:22:03.479Z,81.00
2018-01-12T05:24:30.169Z,81.20
2018-01-12T05:26:56.818Z,81.30
2018-01-12T05:29:23.497Z,80.80
2018-01-12T05:31:50.328Z,80.40
2018-01-12T05:34:17.777Z,80.50
2018-01-12T05:36:44.646Z,80.40
2018-01-12T05:39:12.321Z,80.60
2018-01-12T05:41:39.014Z,80.60
2018-01-12T05:44:05.665Z,80.80
2018-01-12T05:46:32.316Z,81.20
2018-01-12T05:49:00.010Z,80.40
2018-01-12T05:51:27.761Z,80.50
2018-01-12T05:53:54.510Z,80.50
2018-01-12T05:56:21.965Z,80.70
2018-01-12T05:58:48.665Z,80.70
2018-01-12T06:01:29.694Z,81.10
2018-01-12T06:04:09.414Z,80.70
2018-01-12T06:06:37.241Z,81.00
2018-01-12T06:09:04.046Z,81.00
2018-01-12T06:11:31.722Z,80.60
2018-01-12T06:13:59.159Z,80.70
2018-01-12T06:16:27.425Z,80.50
2018-01-12T06:18:54.174Z,80.50
2018-01-12T06:21:21.268Z,79.80
2018-01-12T06:23:48.805Z,79.50
2018-01-12T06:26:16.273Z,79.30
2018-01-12T06:28:43.726Z,79.50
2018-01-12T06:31:11.273Z,79.20
2018-01-12T06:33:38.672Z,79.20
2018-01-12T06:36:06.870Z,79.40
2018-01-12T06:38:33.587Z,79.40
2018-01-12T06:41:00.950Z,79.50
2018-01-12T06:43:27.813Z,79.20
2018-01-12T06:45:55.447Z,79.20
2018-01-12T06:48:22.323Z,79.20
2018-01-12T06:50:49.766Z,79.40
2018-01-12T06:53:17.127Z,79.50
2018-01-12T06:55:44.631Z,79.50
2018-01-12T06:58:11.593Z,79.60
2018-01-12T07:00:38.198Z,79.30
2018-01-12T07:03:05.630Z,79.40
2018-01-12T07:05:32.401Z,79.30
2018-01-12T07:07:59.358Z,79.40
2018-01-12T07:10:26.737Z,78.90
2018-01-12T07:12:53.974Z,78.80
2018-01-12T07:15:21.441Z,79.10
2018-01-12T07:17:49.763Z,79.50
2018-01-12T07:20:29.543Z,79.50
2018-01-12T07:23:10.049Z,78.70
2018-01-12T07:25:36.753Z,78.70
2018-01-12T07:28:03.825Z,79.00
2018-01-12T07:30:31.441Z,79.60
2018-01-12T07:32:58.159Z,79.50
2018-01-12T07:35:24.785Z,79.50
2018-01-12T07:37:52.352Z,79.60
2018-01-12T07:40:19.273Z,79.60
2018-01-12T07:42:46.134Z,82.20
2018-01-12T07:45:13.464Z,80.50
2018-01-12T07:47:40.355Z,80.60
2018-01-12T07:50:07.813Z,80.00
2018-01-12T07:52:56.610Z,79.40
2018-01-12T07:55:23.273Z,79.50
2018-01-12T07:57:50.257Z,80.00
2018-01-12T08:00:17.719Z,78.90
2018-01-12T08:02:52.448Z,78.00
2018-01-12T08:05:19.978Z,78.40
2018-01-12T08:07:46.812Z,78.30
2018-01-12T08:10:13.637Z,80.00
2018-01-12T08:12:40.411Z,78.70
2018-01-12T08:15:07.109Z,77.60
2018-01-12T08:17:33.847Z,77.40
2018-01-12T08:20:01.509Z,78.40
2018-01-12T08:22:29.128Z,78.10
2018-01-12T08:24:55.917Z,78.10
2018-01-12T08:27:23.406Z,76.20
2018-01-12T08:29:50.117Z,76.20
2018-01-12T08:32:16.774Z,76.80
2018-01-12T08:34:43.633Z,75.40
2018-01-12T08:37:10.208Z,76.40
2018-01-12T08:39:37.224Z,75.90
2018-01-12T08:42:04.893Z,75.70
2018-01-12T08:44:31.672Z,75.70
2018-01-12T08:46:58.449Z,74.80
2018-01-12T08:49:27.061Z,73.60
2018-01-12T08:51:54.624Z,74.30
2018-01-12T08:54:22.085Z,75.30
2018-01-12T08:56:49.757Z,74.10
2018-01-12T08:59:17.317Z,75.90
2018-01-12T09:01:45.193Z,74.20
2018-01-12T09:04:13.503Z,75.00
2018-01-12T09:06:40.353Z,75.00
2018-01-12T09:09:07.171Z,75.00
2018-01-12T09:11:34.615Z,74.70
2018-01-12T09:14:13.344Z,74.70
2018-01-12T09:16:50.078Z,75.00
2018-01-12T09:19:29.257Z,74.90
2018-01-12T09:21:56.912Z,74.90
2018-01-12T09:24:24.429Z,75.00
2018-01-12T09:26:52.549Z,74.80
2018-01-12T09:29:19.427Z,74.50
2018-01-12T09:31:50.070Z,73.90
2018-01-12T09:34:29.222Z,73.20
2018-01-12T09:36:55.889Z,73.90
2018-01-12T09:39:35.073Z,73.20
2018-01-12T09:42:02.193Z,73.40
2018-01-12T09:44:30.569Z,74.10
2018-01-12T09:47:09.427Z,73.30
2018-01-12T09:49:47.029Z,73.00
2018-01-12T09:52:13.696Z,73.00
2018-01-12T09:54:40.350Z,73.30
2018-01-12T09:57:07.333Z,73.30
2018-01-12T09:59:44.477Z,73.80
2018-01-12T10:02:11.376Z,73.70
2018-01-12T10:04:38.789Z,74.00
2018-01-12T10:07:16.730Z,74.00
2018-01-12T10:09:46.999Z,73.70
2018-01-12T10:12:13.841Z,73.70
2018-01-12T10:14:40.645Z,73.30
2018-01-12T10:17:08.139Z,72.40
2018-01-12T10:19:34.784Z,72.10
2018-01-12T10:22:01.517Z,72.00
2018-01-12T10:24:28.088Z,73.10
2018-01-12T10:26:54.789Z,71.60
2018-01-12T10:29:27.371Z,71.70
2018-01-12T10:31:55.925Z,71.20
2018-01-12T10:34:43.676Z,71.10
2018-01-12T10:37:11.153Z,70.00
2018-01-12T10:39:50.773Z,71.20
2018-01-12T10:42:18.128Z,71.70
2018-01-12T10:44:44.907Z,70.90
2018-01-12T10:47:24.729Z,71.10
2018-01-12T10:52:54.760Z,70.20
2018-01-12T10:55:22.344Z,70.30
2018-01-12T10:57:49.128Z,70.30
2018-01-12T11:00:31.902Z,70.00
2018-01-12T11:02:58.525Z,70.40
2018-01-12T11:05:25.944Z,70.80
2018-01-12T11:07:53.848Z,70.60
2018-01-12T11:10:21.317Z,70.80
2018-01-12T11:12:48.877Z,70.20
2018-01-12T11:15:16.437Z,68.40
2018-01-12T11:17:43.287Z,68.40
2018-01-12T11:20:10.024Z,69.20
2018-01-12T11:22:36.990Z,70.80
2018-01-12T11:25:04.443Z,68.30
2018-01-12T11:27:31.296Z,68.90
2018-01-12T11:29:58.728Z,69.00
2018-01-12T11:32:25.454Z,69.00
2018-01-12T11:34:52.139Z,69.40
2018-01-12T11:37:18.864Z,68.60
2018-01-12T11:39:45.557Z,67.10
2018-01-12T11:42:12.389Z,69.10
2018-01-12T11:44:39.958Z,69.00
2018-01-12T11:47:07.384Z,69.00
2018-01-12T11:49:34.009Z,69.00
2018-01-12T11:52:00.768Z,67.10
2018-01-12T11:54:27.429Z,66.70
2018-01-12T11:56:54.121Z,66.70
2018-01-12T11:59:20.796Z,66.50
2018-01-12T12:01:47.493Z,66.90
2018-01-12T12:04:15.101Z,66.80
2018-01-12T12:06:41.766Z,66.80
2018-01-12T12:09:08.415Z,65.30
2018-01-12T12:11:35.845Z,68.00
2018-01-12T12:14:02.571Z,67.00
2018-01-12T12:16:29.374Z,67.30
2018-01-12T12:18:56.317Z,67.50
2018-01-12T12:21:23.059Z,67.10
2018-01-12T12:23:49.828Z,66.90
2018-01-12T12:26:17.428Z,67.20
2018-01-12T12:28:44.043Z,67.20
2018-01-12T12:31:11.504Z,67.30
2018-01-12T12:33:38.856Z,67.40
2018-01-12T12:36:06.409Z,68.20
2018-01-12T12:38:33.173Z,68.20
2018-01-12T12:41:00.487Z,67.30
2018-01-12T12:43:27.254Z,67.40
2018-01-12T12:45:54.125Z,67.60
2018-01-12T12:48:21.581Z,67.60
2018-01-12T12:50:48.328Z,67.50
2018-01-12T12:53:15.662Z,68.10
2018-01-12T12:55:42.529Z,68.10
2018-01-12T12:58:09.181Z,68.40
2018-01-12T13:00:36.541Z,69.10
2018-01-12T13:03:04.016Z,69.30
2018-01-12T13:05:31.451Z,69.20
2018-01-12T13:07:58.187Z,69.20
2018-01-12T13:10:24.973Z,69.40
2018-01-12T13:12:51.704Z,69.30
2018-01-12T13:15:19.269Z,69.90
2018-01-12T13:17:46.720Z,69.90
2018-01-12T13:20:13.577Z,69.90
2018-01-12T13:22:41.133Z,69.90
2018-01-12T13:25:09.110Z,69.90
2018-01-12T13:27:35.824Z,70.20
2018-01-12T13:30:02.536Z,70.20
2018-01-12T13:32:29.125Z,70.60
2018-01-12T13:34:56.869Z,70.80
2018-01-12T13:37:23.765Z,71.30
2018-01-12T13:39:51.105Z,72.20
2018-01-12T13:42:17.999Z,72.20
2018-01-12T13:44:44.643Z,72.40
2018-01-12T13:47:12.229Z,72.70
2018-01-12T13:49:38.897Z,73.40
2018-01-12T13:52:06.087Z,73.60
2018-01-12T13:54:33.535Z,74.00
2018-01-12T13:57:00.249Z,73.90
2018-01-12T13:59:26.933Z,74.60
2018-01-12T14:01:54.425Z,75.10
2018-01-12T14:04:21.016Z,75.00
2018-01-12T14:06:48.608Z,75.40
2018-01-12T14:09:16.176Z,75.40
2018-01-12T14:11:43.641Z,75.40
2018-01-12T14:14:10.991Z,75.80
2018-01-12T14:16:37.816Z,75.80
2018-01-12T14:19:04.524Z,76.00
2018-01-12T14:21:31.218Z,75.70
2018-01-12T14:23:57.950Z,75.40
2018-01-12T14:26:24.611Z,75.70
2018-01-12T14:28:51.237Z,76.40
2018-01-12T14:31:17.953Z,76.30
2018-01-12T14:33:44.645Z,76.20
2018-01-12T14:36:11.547Z,76.20
2018-01-12T14:38:38.252Z,76.10
2018-01-12T14:41:06.013Z,75.90
2018-01-12T14:43:33.791Z,76.00
2018-01-12T14:46:01.325Z,76.30
2018-01-12T14:48:28.101Z,76.30
2018-01-12T14:50:55.673Z,75.90
2018-01-12T14:53:23.021Z,76.20
2018-01-12T14:55:50.463Z,75.90
2018-01-12T14:58:17.337Z,75.90
2018-01-12T15:00:44.886Z,76.20
2018-01-12T15:03:12.284Z,76.30
2018-01-12T15:05:38.871Z,76.30
2018-01-12T15:08:07.069Z,77.00
2018-01-12T15:10:33.688Z,76.20
2018-01-12T15:13:00.713Z,76.20
2018-01-12T15:15:28.060Z,76.20
2018-01-12T15:17:54.655Z,76.60
2018-01-12T15:20:21.421Z,76.90
2018-01-12T15:22:48.895Z,77.10
2018-01-12T15:25:15.824Z,77.00
2018-01-12T15:27:43.208Z,77.70
2018-01-12T15:30:09.931Z,77.30
2018-01-12T15:32:37.377Z,76.90
2018-01-12T15:35:04.734Z,77.50
2018-01-12T15:37:31.469Z,77.50
2018-01-12T15:39:58.225Z,77.50
2018-01-12T15:42:25.738Z,77.90
2018-01-12T15:44:53.281Z,78.00
2018-01-12T15:47:20.633Z,78.00
2018-01-12T15:49:47.990Z,77.90
2018-01-12T15:52:14.675Z,77.80
2018-01-12T15:54:41.389Z,77.70
2018-01-12T15:57:08.974Z,77.70
2018-01-12T15:59:35.793Z,77.70
2018-01-12T16:02:03.193Z,77.70
2018-01-12T16:04:30.046Z,77.70
2018-01-12T16:06:56.648Z,77.50
2018-01-12T16:09:23.991Z,77.60
2018-01-12T16:11:52.049Z,77.90
2018-01-12T16:14:18.840Z,77.90
2018-01-12T16:16:46.385Z,77.80
2018-01-12T16:19:13.041Z,77.90
2018-01-12T16:21:40.611Z,78.50
2018-01-12T16:24:08.168Z,79.00
2018-01-12T16:26:35.589Z,78.90
2018-01-12T16:29:02.300Z,78.90
2018-01-12T16:31:29.351Z,79.20
2018-01-12T16:33:55.974Z,79.50
2018-01-12T16:36:23.538Z,80.00
2018-01-12T16:38:50.980Z,80.00
2018-01-12T16:41:17.628Z,80.00
2018-01-12T16:43:44.398Z,81.40
2018-01-12T16:46:11.858Z,80.00
2018-01-12T16:48:39.633Z,79.70
2018-01-12T16:51:06.465Z,79.70
2018-01-12T16:53:33.837Z,80.00
2018-01-12T16:56:01.291Z,79.80
2018-01-12T16:58:28.730Z,80.10
2018-01-12T17:00:56.158Z,79.90
2018-01-12T17:03:22.867Z,79.90
2018-01-12T17:05:50.313Z,80.30
2018-01-12T17:08:17.794Z,80.30
2018-01-12T17:10:44.647Z,80.30
2018-01-12T17:13:12.113Z,80.00
2018-01-12T17:15:38.874Z,80.10
2018-01-12T17:18:05.707Z,79.70
2018-01-12T17:20:32.436Z,79.90
2018-01-12T17:22:59.894Z,79.60
2018-01-12T17:25:27.372Z,79.60
2018-01-12T17:27:55.282Z,79.60
2018-01-12T17:30:22.172Z,79.40
2018-01-12T17:32:49.589Z,79.40
2018-01-12T17:35:16.309Z,79.40
2018-01-12T17:37:43.006Z,79.30
2018-01-12T17:40:10.527Z,79.00
2018-01-12T17:42:38.666Z,79.10
2018-01-12T17:45:06.160Z,79.00
2018-01-12T17:47:33.008Z,78.90
2018-01-12T17:50:00.044Z,78.80
2018-01-12T17:52:26.729Z,78.90
2018-01-12T17:54:53.434Z,78.60
2018-01-12T17:57:20.297Z,78.70
2018-01-12T17:59:47.452Z,78.80
2018-01-12T18:02:14.302Z,78.80
2018-01-12T18:04:41.038Z,78.80
2018-01-12T18:07:08.089Z,79.20
2018-01-12T18:09:34.809Z,79.40
2018-01-12T18:12:02.397Z,79.40
2018-01-12T18:14:29.391Z,79.80
2018-01-12T18:16:56.103Z,80.00
2018-01-12T18:19:23.033Z,79.50
2018-01-12T18:21:50.512Z,79.70
2018-01-12T18:24:17.255Z,79.70
2018-01-12T18:26:44.609Z,79.80
2018-01-12T18:29:12.182Z,79.60
2018-01-12T18:31:39.013Z,79.60
2018-01-12T18:34:06.576Z,79.40
2018-01-12T18:36:34.171Z,79.20
2018-01-12T18:39:01.112Z,79.20
2018-01-12T18:41:28.045Z,79.40
2018-01-12T18:43:55.511Z,79.70
2018-01-12T18:46:22.176Z,79.70
2018-01-12T18:48:48.861Z,79.70
2018-01-12T18:51:16.355Z,79.70
2018-01-12T18:53:43.846Z,79.80
2018-01-12T18:56:10.472Z,79.70
2018-01-12T18:58:37.264Z,79.70
2018-01-12T19:01:04.187Z,79.80
2018-01-12T19:03:31.239Z,79.70
2018-01-12T19:05:57.501Z,79.40
2018-01-12T19:08:24.049Z,79.50
2018-01-12T19:10:50.720Z,79.50
2018-01-12T19:13:18.062Z,78.80
2018-01-12T19:15:44.717Z,78.70
2018-01-12T19:18:12.406Z,77.70
2018-01-12T19:20:40.128Z,79.00
2018-01-12T19:23:06.800Z,78.90
2018-01-12T19:25:33.448Z,79.40
2018-01-12T19:28:00.992Z,79.30
2018-01-12T19:30:27.664Z,79.30
2018-01-12T19:32:55.200Z,79.30
2018-01-12T19:35:21.949Z,79.30
2018-01-12T19:37:48.539Z,79.40
2018-01-12T19:40:15.968Z,79.70
2018-01-12T19:42:43.435Z,80.30
2018-01-12T19:45:10.997Z,80.40
2018-01-12T19:47:38.560Z,80.30
2018-01-12T19:50:06.629Z,80.00
2018-01-12T19:52:33.245Z,80.00
2018-01-12T19:54:59.981Z,80.40
2018-01-12T19:57:26.680Z,79.80
2018-01-12T19:59:54.236Z,80.30
2018-01-12T20:02:21.568Z,80.50
2018-01-12T20:04:48.312Z,80.50
2018-01-12T20:07:15.048Z,80.20
2018-01-12T20:09:41.845Z,80.00
2018-01-12T20:12:09.709Z,81.20
2018-01-12T20:14:37.281Z,81.60
2018-01-12T20:17:04.694Z,80.90
2018-01-12T20:19:31.388Z,80.90
2018-01-12T20:21:57.990Z,80.70
2018-01-12T20:24:24.969Z,80.90
2018-01-12T20:26:52.530Z,81.20
2018-01-12T20:29:19.992Z,81.80
2018-01-12T20:31:47.352Z,82.00
2018-01-12T20:34:14.703Z,82.10
2018-01-12T20:36:41.363Z,81.90
2018-01-12T20:39:08.668Z,82.40
2018-01-12T20:41:35.260Z,82.40
2018-01-12T20:44:02.783Z,81.80
2018-01-12T20:46:30.207Z,81.80
2018-01-12T20:48:57.048Z,81.90
2018-01-12T20:51:23.624Z,81.50
2018-01-12T20:53:50.421Z,81.30
2018-01-12T20:56:17.988Z,81.80
2018-01-12T20:58:45.324Z,81.80
2018-01-12T21:01:12.077Z,81.80
2018-01-12T21:03:38.928Z,81.90
2018-01-12T21:06:05.608Z,82.00
2018-01-12T21:08:33.237Z,83.20
2018-01-12T21:11:00.378Z,82.70
2018-01-12T21:13:27.067Z,83.60
2018-01-12T21:15:53.915Z,83.40
2018-01-12T21:18:20.613Z,83.10
2018-01-12T21:20:47.528Z,83.30
2018-01-12T21:23:14.373Z,83.40
2018-01-12T21:25:41.173Z,83.30
2018-01-12T21:28:08.435Z,84.10
2018-01-12T21:30:35.152Z,83.00
2018-01-12T21:33:01.880Z,83.30
2018-01-12T21:35:28.652Z,83.20
2018-01-12T21:37:56.086Z,83.10
2018-01-12T21:40:22.789Z,83.10
2018-01-12T21:42:50.235Z,83.10
2018-01-12T21:45:18.328Z,83.00
2018-01-12T21:47:45.670Z,82.20
2018-01-12T21:50:12.463Z,82.20
2018-01-12T21:52:39.136Z,81.90
2018-01-12T21:55:05.920Z,81.60
2018-01-12T21:57:34.097Z,81.10
2018-01-12T22:00:01.425Z,81.00
2018-01-12T22:02:28.094Z,80.80
2018-01-12T22:04:54.733Z,80.80
2018-01-12T22:07:21.593Z,82.20
2018-01-12T22:09:49.390Z,81.80
2018-01-12T22:12:16.101Z,81.70
2018-01-12T22:14:43.056Z,81.70
2018-01-12T22:17:10.616Z,81.70
2018-01-12T22:19:37.378Z,81.60
2018-01-12T22:22:04.863Z,81.00
2018-01-12T22:24:31.551Z,81.00
2018-01-12T22:26:58.425Z,81.40
2018-01-12T22:29:25.989Z,81.30
2018-01-12T22:31:53.327Z,81.30
2018-01-12T22:34:19.999Z,81.20
2018-01-12T22:36:47.437Z,81.60
2018-01-12T22:39:14.405Z,81.60
2018-01-12T22:41:41.845Z,81.60
2018-01-12T22:44:08.613Z,81.60
2018-01-12T22:46:35.961Z,82.20
2018-01-12T22:49:02.953Z,82.20
2018-01-12T22:51:30.285Z,82.30
2018-01-12T22:53:57.821Z,81.90
2018-01-12T22:56:24.465Z,81.90
2018-01-12T22:58:51.941Z,81.60
2018-01-12T23:01:18.669Z,81.60
2018-01-12T23:03:45.656Z,81.40
2018-01-12T23:06:13.222Z,81.60
2018-01-12T23:08:40.590Z,82.00
2018-01-12T23:11:08.005Z,82.20
2018-01-12T23:13:34.669Z,82.20
2018-01-12T23:16:01.945Z,81.90
2018-01-12T23:18:29.271Z,81.50
2018-01-12T23:21:11.888Z,81.50
2018-01-12T23:23:39.333Z,81.90
2018-01-12T23:26:05.987Z,81.90
2018-01-12T23:28:32.866Z,82.00
2018-01-12T23:31:00.289Z,82.20
2018-01-12T23:33:27.064Z,82.20
2018-01-12T23:35:53.735Z,82.20
2018-01-12T23:38:20.320Z,82.10
2018-01-12T23:40:46.978Z,81.90
2018-01-12T23:43:13.624Z,81.80
2018-01-12T23:45:40.245Z,82.00
2018-01-12T23:48:06.913Z,81.90
2018-01-12T23:50:33.781Z,82.20
2018-01-12T23:53:01.545Z,82.00
2018-01-12T23:55:28.878Z,81.80
2018-01-12T23:57:55.861Z,81.80
